createdAt,value
2022-12-26T00:00:39.060Z,2.50
2022-12-26T00:03:06.384Z,2.78
2022-12-26T00:05:37.408Z,2.70
2022-12-26T00:08:05.293Z,2.70
2022-12-26T00:10:32.763Z,2.70
2022-12-26T00:13:37.307Z,2.30
2022-12-26T00:15:47.396Z,2.60
2022-12-26T00:18:14.674Z,2.33
2022-12-26T00:20:41.910Z,2.55
2022-12-26T00:23:09.139Z,2.35
2022-12-26T00:25:36.590Z,2.03
2022-12-26T00:28:03.788Z,2.80
2022-12-26T00:30:31.267Z,2.28
2022-12-26T00:32:58.553Z,2.53
2022-12-26T00:35:25.954Z,2.53
2022-12-26T00:37:53.186Z,2.40
2022-12-26T00:40:21.724Z,2.25
2022-12-26T00:42:48.968Z,2.53
2022-12-26T00:45:16.248Z,2.20
2022-12-26T00:47:43.508Z,2.20
2022-12-26T00:50:13.864Z,2.30
2022-12-26T00:52:43.643Z,1.90
2022-12-26T00:55:11.450Z,1.95
2022-12-26T00:57:38.652Z,2.08
2022-12-26T01:00:06.454Z,2.00
2022-12-26T01:02:41.664Z,2.40
2022-12-26T01:05:10.353Z,2.20
2022-12-26T01:08:22.509Z,2.50
2022-12-26T01:10:26.111Z,2.00
2022-12-26T01:12:53.393Z,2.42
2022-12-26T01:15:21.156Z,1.92
2022-12-26T01:17:48.386Z,2.30
2022-12-26T01:20:15.822Z,2.53
2022-12-26T01:22:43.055Z,2.63
2022-12-26T01:25:11.582Z,2.00
2022-12-26T01:27:38.848Z,2.45
2022-12-26T01:30:06.456Z,2.25
2022-12-26T01:32:33.701Z,2.20
2022-12-26T01:35:00.947Z,1.80
2022-12-26T01:37:28.176Z,2.08
2022-12-26T01:39:55.436Z,1.83
2022-12-26T01:42:23.946Z,2.42
2022-12-26T01:44:57.400Z,2.58
2022-12-26T01:47:26.141Z,2.22
2022-12-26T01:49:55.047Z,2.10
2022-12-26T01:52:25.793Z,2.30
2022-12-26T01:54:53.435Z,2.13
2022-12-26T01:57:23.302Z,2.00
2022-12-26T01:59:51.451Z,2.47
2022-12-26T02:02:19.785Z,3.20
2022-12-26T02:05:08.582Z,2.38
2022-12-26T02:07:36.772Z,2.15
2022-12-26T02:10:04.499Z,2.25
2022-12-26T02:12:38.411Z,2.40
2022-12-26T02:15:10.957Z,2.13
2022-12-26T02:17:39.022Z,2.00
2022-12-26T02:20:21.356Z,2.00
2022-12-26T02:23:06.775Z,1.65
2022-12-26T02:25:37.031Z,2.20
2022-12-26T02:28:10.449Z,2.10
2022-12-26T02:30:45.414Z,2.20
2022-12-26T02:33:25.270Z,2.10
2022-12-26T02:35:52.483Z,2.60
2022-12-26T02:38:35.166Z,2.20
2022-12-26T02:41:25.351Z,2.17
2022-12-26T02:43:59.102Z,1.95
2022-12-26T02:47:02.823Z,2.05
2022-12-26T02:49:58.892Z,1.90
2022-12-26T02:52:49.446Z,2.00
2022-12-26T02:55:37.184Z,2.10
2022-12-26T02:58:30.979Z,1.80
2022-12-26T03:01:20.359Z,1.88
2022-12-26T03:04:06.812Z,1.80
2022-12-26T03:06:53.272Z,2.20
2022-12-26T03:09:50.061Z,2.25
2022-12-26T03:13:05.130Z,1.90
2022-12-26T03:15:56.065Z,1.70
2022-12-26T03:18:58.546Z,2.00
2022-12-26T03:21:12.718Z,1.70
2022-12-26T03:23:41.266Z,1.67
2022-12-26T03:26:32.073Z,2.42
2022-12-26T03:29:19.426Z,1.98
2022-12-26T03:31:46.766Z,2.40
2022-12-26T03:34:20.042Z,1.75
2022-12-26T03:36:56.594Z,1.65
2022-12-26T03:39:51.432Z,1.70
2022-12-26T03:42:43.301Z,1.75
2022-12-26T03:45:38.468Z,1.73
2022-12-26T03:48:27.027Z,1.48
2022-12-26T03:51:16.841Z,1.70
2022-12-26T03:54:02.882Z,1.77
2022-12-26T03:56:58.243Z,1.45
2022-12-26T03:59:48.041Z,2.08
2022-12-26T04:02:35.030Z,1.83
2022-12-26T04:05:36.057Z,1.52
2022-12-26T04:08:23.739Z,1.88
2022-12-26T04:11:11.928Z,1.70
2022-12-26T04:14:04.527Z,1.70
2022-12-26T04:16:59.325Z,2.15
2022-12-26T04:19:45.481Z,1.80
2022-12-26T04:22:41.046Z,2.10
2022-12-26T04:25:48.792Z,2.08
2022-12-26T04:28:37.836Z,1.73
2022-12-26T04:31:27.193Z,1.95
2022-12-26T04:34:18.016Z,1.70
2022-12-26T04:37:10.258Z,1.80
2022-12-26T04:39:57.591Z,1.73
2022-12-26T04:42:44.220Z,2.58
2022-12-26T04:45:12.197Z,2.15
2022-12-26T04:47:59.434Z,1.92
2022-12-26T04:50:26.708Z,2.08
2022-12-26T04:53:00.696Z,1.67
2022-12-26T04:55:32.568Z,1.65
2022-12-26T04:58:00.473Z,1.70
2022-12-26T05:00:29.082Z,1.70
2022-12-26T05:03:19.062Z,2.08
2022-12-26T05:06:08.046Z,1.77
2022-12-26T05:08:58.226Z,1.80
2022-12-26T05:11:25.888Z,1.80
2022-12-26T05:13:53.870Z,1.77
2022-12-26T05:16:40.418Z,1.75
2022-12-26T05:19:26.417Z,1.92
2022-12-26T05:22:12.568Z,1.90
2022-12-26T05:25:00.803Z,1.63
2022-12-26T05:28:06.751Z,1.80
2022-12-26T05:30:33.970Z,1.60
2022-12-26T05:33:19.802Z,1.80
2022-12-26T05:35:47.065Z,1.67
2022-12-26T05:38:14.407Z,2.05
2022-12-26T05:40:41.630Z,1.40
2022-12-26T05:43:08.899Z,1.63
2022-12-26T05:45:36.130Z,1.92
2022-12-26T05:48:03.651Z,1.88
2022-12-26T05:50:30.969Z,2.03
2022-12-26T05:52:59.000Z,1.77
2022-12-26T05:55:26.584Z,1.75
2022-12-26T05:57:53.886Z,1.67
2022-12-26T06:00:21.125Z,1.80
2022-12-26T06:02:48.494Z,1.95
2022-12-26T06:05:15.749Z,1.60
2022-12-26T06:07:43.031Z,1.80
2022-12-26T06:10:10.751Z,1.63
2022-12-26T06:12:38.153Z,1.67
2022-12-26T06:15:05.602Z,1.60
2022-12-26T06:17:32.822Z,1.75
2022-12-26T06:20:00.168Z,1.80
2022-12-26T06:22:29.626Z,1.70
2022-12-26T06:24:56.879Z,1.50
2022-12-26T06:27:24.338Z,1.70
2022-12-26T06:29:51.617Z,1.85
2022-12-26T06:32:18.858Z,1.95
2022-12-26T06:34:46.084Z,1.80
2022-12-26T06:37:13.348Z,1.90
2022-12-26T06:39:40.546Z,1.52
2022-12-26T06:42:07.983Z,1.85
2022-12-26T06:44:35.204Z,1.50
2022-12-26T06:47:03.322Z,1.70
2022-12-26T06:49:32.964Z,1.80
2022-12-26T06:52:00.648Z,1.80
2022-12-26T06:54:27.863Z,1.70
2022-12-26T06:56:55.103Z,1.60
2022-12-26T06:59:22.413Z,2.20
2022-12-26T07:01:49.748Z,1.50
2022-12-26T07:04:17.127Z,1.90
2022-12-26T07:06:44.411Z,1.70
2022-12-26T07:09:14.548Z,1.60
2022-12-26T07:11:43.201Z,1.55
2022-12-26T07:14:10.520Z,1.90
2022-12-26T07:16:38.877Z,1.80
2022-12-26T07:19:06.917Z,1.80
2022-12-26T07:21:40.073Z,1.30
2022-12-26T07:24:09.064Z,1.60
2022-12-26T07:26:36.442Z,1.42
2022-12-26T07:29:03.823Z,1.63
2022-12-26T07:31:31.335Z,1.65
2022-12-26T07:33:58.774Z,1.60
2022-12-26T07:36:27.113Z,1.40
2022-12-26T07:38:54.634Z,1.40
2022-12-26T07:41:40.997Z,1.52
2022-12-26T07:44:09.554Z,1.50
2022-12-26T07:46:36.916Z,1.55
2022-12-26T07:49:04.751Z,1.50
2022-12-26T07:51:32.503Z,1.67
2022-12-26T07:54:02.197Z,1.52
2022-12-26T07:56:34.687Z,1.50
2022-12-26T07:59:02.022Z,1.40
2022-12-26T08:01:29.817Z,1.48
2022-12-26T08:03:57.531Z,1.10
2022-12-26T08:06:25.018Z,1.35
2022-12-26T08:08:52.559Z,1.48
2022-12-26T08:11:21.464Z,1.10
2022-12-26T08:13:48.719Z,1.60
2022-12-26T08:16:16.523Z,1.15
2022-12-26T08:18:43.805Z,1.48
2022-12-26T08:21:11.560Z,1.30
2022-12-26T08:23:39.105Z,1.13
2022-12-26T08:26:07.341Z,1.10
2022-12-26T08:28:34.740Z,0.90
2022-12-26T08:31:05.712Z,1.50
2022-12-26T08:33:32.927Z,1.23
2022-12-26T08:36:06.947Z,1.10
2022-12-26T08:38:34.431Z,1.50
2022-12-26T08:41:01.933Z,1.15
2022-12-26T08:43:45.374Z,0.95
2022-12-26T08:46:17.696Z,1.10
2022-12-26T08:48:45.624Z,0.80
2022-12-26T08:51:20.066Z,0.90
2022-12-26T08:53:49.688Z,1.10
2022-12-26T08:56:18.277Z,0.90
2022-12-26T08:58:46.068Z,1.10
2022-12-26T09:01:17.392Z,0.77
2022-12-26T09:03:45.279Z,0.77
2022-12-26T09:06:13.379Z,0.70
2022-12-26T09:08:41.051Z,0.70
2022-12-26T09:11:10.181Z,0.70
2022-12-26T09:13:38.813Z,0.73
2022-12-26T09:16:23.055Z,0.85
2022-12-26T09:18:53.655Z,0.80
2022-12-26T09:21:20.915Z,0.80
2022-12-26T09:23:48.715Z,0.80
2022-12-26T09:26:18.228Z,0.80
2022-12-26T09:28:47.149Z,0.85
2022-12-26T09:31:15.988Z,0.93
2022-12-26T09:33:43.400Z,0.90
2022-12-26T09:36:15.459Z,0.75
2022-12-26T09:38:44.305Z,1.13
2022-12-26T09:41:11.580Z,0.82
2022-12-26T09:43:57.725Z,0.82
2022-12-26T09:46:34.245Z,0.85
2022-12-26T09:49:12.115Z,0.82
2022-12-26T09:51:40.553Z,1.00
2022-12-26T09:54:09.040Z,0.90
2022-12-26T09:57:02.370Z,0.82
2022-12-26T09:59:26.312Z,1.10
2022-12-26T10:01:54.462Z,0.90
2022-12-26T10:04:30.190Z,0.85
2022-12-26T10:07:02.488Z,1.30
2022-12-26T10:10:03.294Z,0.98
2022-12-26T10:12:33.338Z,0.77
2022-12-26T10:15:07.489Z,0.80
2022-12-26T10:17:41.638Z,0.88
2022-12-26T10:20:14.709Z,0.82
2022-12-26T10:22:50.760Z,0.70
2022-12-26T10:25:30.377Z,0.88
2022-12-26T10:28:01.840Z,0.88
2022-12-26T10:30:32.204Z,1.00
2022-12-26T10:33:02.043Z,0.98
2022-12-26T10:35:36.256Z,0.63
2022-12-26T10:38:16.187Z,1.00
2022-12-26T10:40:46.004Z,0.90
2022-12-26T10:43:22.527Z,0.85
2022-12-26T10:45:55.703Z,0.70
2022-12-26T10:48:23.994Z,0.88
2022-12-26T10:50:51.271Z,0.90
2022-12-26T10:53:18.788Z,0.60
2022-12-26T10:55:46.023Z,1.00
2022-12-26T10:58:18.763Z,0.82
2022-12-26T11:00:46.123Z,1.02
2022-12-26T11:03:14.868Z,0.80
2022-12-26T11:08:49.928Z,0.65
2022-12-26T11:11:24.709Z,0.93
2022-12-26T11:14:03.145Z,0.70
2022-12-26T11:16:32.469Z,0.82
2022-12-26T11:18:59.970Z,0.75
2022-12-26T11:21:29.660Z,0.75
2022-12-26T11:24:20.045Z,1.00
2022-12-26T11:26:47.554Z,0.80
2022-12-26T11:29:22.233Z,0.63
2022-12-26T11:31:58.179Z,1.00
2022-12-26T11:34:34.547Z,1.00
2022-12-26T11:37:02.248Z,0.70
2022-12-26T11:39:34.504Z,0.60
2022-12-26T11:42:01.943Z,0.90
2022-12-26T11:44:34.092Z,1.10
2022-12-26T11:47:08.807Z,0.90
2022-12-26T11:49:40.719Z,0.90
2022-12-26T11:52:27.252Z,1.38
2022-12-26T11:54:54.471Z,0.98
2022-12-26T11:57:23.131Z,0.90
2022-12-26T11:59:51.147Z,0.77
2022-12-26T12:02:21.243Z,0.80
2022-12-26T12:04:49.500Z,1.00
2022-12-26T12:07:16.714Z,0.70
2022-12-26T12:10:04.267Z,0.65
2022-12-26T12:12:31.471Z,0.85
2022-12-26T12:15:04.878Z,0.90
2022-12-26T12:17:37.888Z,0.77
2022-12-26T12:20:27.112Z,1.05
2022-12-26T12:22:54.443Z,0.90
2022-12-26T12:25:21.620Z,0.90
2022-12-26T12:27:54.890Z,0.88
2022-12-26T12:30:28.502Z,1.02
2022-12-26T12:32:58.488Z,0.93
2022-12-26T12:35:44.301Z,0.90
2022-12-26T12:38:19.256Z,0.77
2022-12-26T12:41:05.084Z,1.27
2022-12-26T12:43:35.100Z,0.80
2022-12-26T12:46:21.227Z,0.85
2022-12-26T12:48:48.445Z,0.80
2022-12-26T12:51:30.681Z,1.23
2022-12-26T12:54:33.619Z,0.80
2022-12-26T12:57:17.721Z,0.98
2022-12-26T12:59:54.554Z,0.70
2022-12-26T13:02:28.097Z,0.80
2022-12-26T13:05:15.230Z,0.80
2022-12-26T13:07:47.618Z,0.73
2022-12-26T13:10:24.072Z,0.55
2022-12-26T13:12:52.622Z,0.70
2022-12-26T13:15:40.183Z,0.70
2022-12-26T13:18:18.329Z,0.98
2022-12-26T13:20:49.441Z,0.70
2022-12-26T13:23:35.573Z,0.80
2022-12-26T13:26:14.620Z,0.90
2022-12-26T13:28:56.955Z,0.80
2022-12-26T13:31:24.554Z,0.70
2022-12-26T13:33:52.141Z,0.90
2022-12-26T13:36:39.558Z,0.73
2022-12-26T13:39:24.823Z,0.70
2022-12-26T13:42:12.990Z,0.60
2022-12-26T13:44:40.274Z,0.77
2022-12-26T13:47:27.502Z,0.60
2022-12-26T13:49:54.732Z,0.70
2022-12-26T13:52:25.851Z,0.80
2022-12-26T13:54:53.063Z,0.45
2022-12-26T13:57:36.647Z,0.70
2022-12-26T14:00:06.820Z,0.68
2022-12-26T14:03:07.652Z,0.65
2022-12-26T14:05:42.657Z,0.73
2022-12-26T14:08:13.026Z,0.63
2022-12-26T14:10:40.307Z,0.70
2022-12-26T14:13:07.500Z,0.60
2022-12-26T14:15:34.883Z,1.02
2022-12-26T14:18:05.064Z,0.77
2022-12-26T14:20:58.516Z,0.63
2022-12-26T14:23:46.625Z,0.70
2022-12-26T14:26:13.975Z,0.57
2022-12-26T14:29:00.194Z,0.60
2022-12-26T14:31:56.928Z,1.05
2022-12-26T14:34:42.344Z,0.70
2022-12-26T14:37:20.925Z,0.55
2022-12-26T14:40:06.360Z,0.60
2022-12-26T14:43:12.201Z,0.60
2022-12-26T14:45:44.198Z,0.80
2022-12-26T14:48:17.773Z,0.80
2022-12-26T14:50:45.135Z,0.60
2022-12-26T14:53:21.147Z,0.70
2022-12-26T14:55:50.000Z,0.70
2022-12-26T14:58:38.417Z,0.50
2022-12-26T15:01:15.787Z,0.50
2022-12-26T15:03:52.432Z,0.60
2022-12-26T15:06:29.788Z,0.60
2022-12-26T15:09:19.613Z,0.77
2022-12-26T15:12:07.838Z,0.75
2022-12-26T15:14:53.279Z,0.63
2022-12-26T15:17:29.558Z,0.70
2022-12-26T15:20:20.037Z,0.70
2022-12-26T15:23:02.896Z,0.70
2022-12-26T15:25:42.671Z,0.80
2022-12-26T15:28:28.343Z,0.65
2022-12-26T15:30:55.621Z,0.50
2022-12-26T15:33:25.602Z,0.60
2022-12-26T15:35:54.013Z,0.65
2022-12-26T15:38:27.254Z,0.57
2022-12-26T15:41:13.198Z,0.50
2022-12-26T15:43:43.484Z,0.70
2022-12-26T15:46:27.764Z,0.50
2022-12-26T15:49:13.400Z,0.50
2022-12-26T15:51:40.645Z,0.63
2022-12-26T15:54:26.911Z,0.60
2022-12-26T15:57:03.553Z,0.47
2022-12-26T15:59:49.714Z,0.45
2022-12-26T16:02:26.302Z,0.60
2022-12-26T16:04:57.752Z,0.50
2022-12-26T16:07:27.765Z,0.85
2022-12-26T16:09:56.281Z,0.80
2022-12-26T16:12:26.424Z,0.80
2022-12-26T16:15:05.723Z,0.70
2022-12-26T16:17:34.123Z,0.45
2022-12-26T16:20:18.843Z,0.50
2022-12-26T16:22:49.511Z,0.50
2022-12-26T16:25:24.748Z,0.40
2022-12-26T16:27:58.456Z,0.30
2022-12-26T16:30:32.528Z,0.22
2022-12-26T16:33:00.419Z,0.25
2022-12-26T16:35:29.608Z,0.30
2022-12-26T16:37:58.631Z,0.30
2022-12-26T16:40:41.525Z,0.40
2022-12-26T16:43:14.219Z,0.20
2022-12-26T16:45:41.774Z,0.35
2022-12-26T16:48:12.575Z,0.25
2022-12-26T16:50:46.352Z,0.30
2022-12-26T16:53:19.215Z,0.35
2022-12-26T16:56:01.078Z,0.30
2022-12-26T16:58:30.791Z,0.30
2022-12-26T17:01:09.301Z,0.40
2022-12-26T17:04:04.813Z,0.30
2022-12-26T17:06:45.995Z,0.30
2022-12-26T17:09:17.032Z,0.40
2022-12-26T17:12:02.926Z,0.80
2022-12-26T17:14:36.246Z,0.32
2022-12-26T17:17:25.879Z,0.50
2022-12-26T17:19:55.370Z,0.20
2022-12-26T17:22:36.641Z,0.20
2022-12-26T17:25:21.425Z,0.10
2022-12-26T17:28:08.274Z,0.30
2022-12-26T17:30:46.575Z,0.20
2022-12-26T17:33:15.795Z,0.20
2022-12-26T17:36:44.801Z,0.22
2022-12-26T17:38:35.112Z,0.25
2022-12-26T17:41:04.329Z,0.20
2022-12-26T17:43:37.529Z,0.30
2022-12-26T17:46:06.686Z,0.10
2022-12-26T17:48:34.461Z,0.20
2022-12-26T17:51:04.722Z,0.20
2022-12-26T17:53:32.924Z,0.30
2022-12-26T17:56:05.446Z,0.30
2022-12-26T17:58:33.109Z,0.22
2022-12-26T18:01:00.940Z,0.30
2022-12-26T18:03:28.112Z,0.30
2022-12-26T18:05:56.524Z,0.30
2022-12-26T18:08:35.356Z,0.20
2022-12-26T18:11:04.964Z,0.60
2022-12-26T18:13:32.261Z,0.30
2022-12-26T18:15:59.464Z,0.38
2022-12-26T18:18:36.211Z,0.47
2022-12-26T18:21:05.773Z,0.55
2022-12-26T18:23:32.787Z,0.45
2022-12-26T18:26:01.934Z,0.32
2022-12-26T18:28:29.286Z,0.30
2022-12-26T18:30:58.209Z,0.40
2022-12-26T18:33:25.525Z,0.50
2022-12-26T18:35:52.948Z,0.40
2022-12-26T18:38:21.104Z,0.20
2022-12-26T18:40:57.986Z,0.30
2022-12-26T18:43:24.875Z,0.40
2022-12-26T18:45:53.274Z,0.43
2022-12-26T18:48:20.302Z,0.32
2022-12-26T18:50:47.518Z,0.40
2022-12-26T18:53:14.327Z,0.40
2022-12-26T18:55:41.311Z,0.50
2022-12-26T18:58:08.294Z,0.60
2022-12-26T19:00:36.556Z,0.57
2022-12-26T19:03:03.612Z,0.75
2022-12-26T19:05:34.381Z,1.20
2022-12-26T19:08:02.326Z,1.00
2022-12-26T19:10:32.355Z,0.52
2022-12-26T19:13:05.814Z,0.73
2022-12-26T19:15:34.957Z,0.65
2022-12-26T19:18:02.815Z,0.77
2022-12-26T19:20:29.744Z,0.70
2022-12-26T19:22:57.262Z,0.60
2022-12-26T19:25:25.251Z,0.45
2022-12-26T19:27:52.844Z,0.65
2022-12-26T19:30:20.995Z,0.40
2022-12-26T19:32:49.217Z,0.50
2022-12-26T19:35:16.757Z,0.57
2022-12-26T19:37:43.918Z,0.50
2022-12-26T19:40:12.402Z,0.50
2022-12-26T19:42:39.220Z,0.50
2022-12-26T19:45:08.659Z,0.50
2022-12-26T19:47:36.085Z,0.55
2022-12-26T19:50:04.821Z,0.43
2022-12-26T19:52:31.860Z,0.60
2022-12-26T19:54:59.117Z,0.50
2022-12-26T19:57:26.063Z,0.40
2022-12-26T19:59:53.118Z,0.40
2022-12-26T20:02:20.038Z,0.60
2022-12-26T20:04:47.077Z,0.40
2022-12-26T20:07:13.870Z,0.40
2022-12-26T20:09:41.124Z,0.40
2022-12-26T20:12:08.092Z,0.50
2022-12-26T20:14:35.143Z,0.20
2022-12-26T20:17:07.235Z,0.43
2022-12-26T20:19:35.515Z,0.70
2022-12-26T20:22:02.512Z,0.57
2022-12-26T20:24:29.619Z,0.52
2022-12-26T20:26:56.630Z,0.60
2022-12-26T20:29:23.653Z,0.50
2022-12-26T20:31:50.811Z,0.32
2022-12-26T20:34:19.515Z,0.38
2022-12-26T20:36:46.553Z,0.43
2022-12-26T20:39:16.768Z,0.63
2022-12-26T20:41:44.042Z,0.30
2022-12-26T20:44:13.722Z,0.40
2022-12-26T20:46:41.706Z,0.35
2022-12-26T20:49:09.862Z,0.30
2022-12-26T20:51:39.003Z,0.30
2022-12-26T20:54:10.377Z,0.20
2022-12-26T20:56:38.342Z,0.28
2022-12-26T20:59:06.828Z,0.20
2022-12-26T21:01:35.216Z,0.30
2022-12-26T21:04:02.388Z,0.20
2022-12-26T21:06:32.324Z,0.20
2022-12-26T21:08:59.524Z,0.30
2022-12-26T21:11:38.323Z,0.20
2022-12-26T21:14:10.933Z,0.30
2022-12-26T21:17:04.048Z,0.35
2022-12-26T21:19:30.870Z,0.35
2022-12-26T21:21:58.118Z,0.35
2022-12-26T21:24:31.091Z,0.43
2022-12-26T21:26:58.469Z,0.50
2022-12-26T21:29:36.115Z,0.50
2022-12-26T21:32:04.705Z,0.50
2022-12-26T21:34:33.296Z,0.88
2022-12-26T21:37:19.349Z,0.80
2022-12-26T21:39:47.205Z,0.70
2022-12-26T21:42:14.402Z,0.68
2022-12-26T21:44:41.287Z,0.50
2022-12-26T21:47:08.527Z,0.80
2022-12-26T21:49:36.470Z,0.70
2022-12-26T21:52:04.938Z,0.75
2022-12-26T21:54:50.702Z,0.50
2022-12-26T21:57:18.361Z,0.50
2022-12-26T21:59:58.724Z,0.50
2022-12-26T22:02:48.750Z,0.50
2022-12-26T22:05:17.905Z,0.50
2022-12-26T22:07:44.945Z,0.60
2022-12-26T22:10:34.927Z,0.50
2022-12-26T22:13:03.076Z,0.47
2022-12-26T22:15:48.513Z,0.50
2022-12-26T22:18:15.872Z,0.40
2022-12-26T22:20:44.774Z,0.20
2022-12-26T22:23:12.889Z,0.30
2022-12-26T22:25:39.650Z,0.30
2022-12-26T22:28:06.497Z,0.40
2022-12-26T22:30:33.229Z,0.30
2022-12-26T22:33:00.125Z,0.38
2022-12-26T22:35:27.865Z,0.40
2022-12-26T22:37:54.715Z,0.52
2022-12-26T22:40:21.640Z,0.70
2022-12-26T22:42:48.403Z,1.38
2022-12-26T22:45:15.270Z,1.20
2022-12-26T22:47:42.036Z,0.70
2022-12-26T22:50:15.302Z,0.70
2022-12-26T22:52:42.362Z,0.60
2022-12-26T22:55:10.736Z,0.70
2022-12-26T22:57:37.625Z,0.63
2022-12-26T23:00:09.244Z,0.80
2022-12-26T23:02:37.182Z,0.50
2022-12-26T23:05:04.538Z,0.52
2022-12-26T23:07:31.680Z,0.52
2022-12-26T23:09:58.904Z,0.57
2022-12-26T23:12:43.810Z,0.85
2022-12-26T23:15:23.087Z,0.63
2022-12-26T23:18:19.438Z,0.40
2022-12-26T23:21:05.037Z,0.60
2022-12-26T23:23:32.203Z,0.40
2022-12-26T23:26:01.186Z,0.43
2022-12-26T23:28:46.785Z,0.50
2022-12-26T23:31:13.653Z,0.30
2022-12-26T23:33:40.638Z,0.30
2022-12-26T23:36:07.957Z,0.40
2022-12-26T23:38:34.837Z,0.50
2022-12-26T23:41:01.707Z,0.60
2022-12-26T23:43:28.548Z,0.50
2022-12-26T23:45:55.384Z,0.77
2022-12-26T23:48:22.154Z,0.57
2022-12-26T23:50:49.663Z,0.40
2022-12-26T23:53:16.495Z,0.35
2022-12-26T23:55:43.281Z,0.38
2022-12-26T23:58:10.140Z,0.57
